sensor_id;sensor_type;location;lat;lon;timestamp;P1;durP1;ratioP1;P2;durP2;ratioP2
33840;SDS011;20142;28.494;-16.312;2022-12-10T11:53:50;5.90;;;4.15;;
33840;SDS011;20142;28.494;-16.312;2022-12-10T11:58:35;6.20;;;4.28;;
33840;SDS011;20142;28.494;-16.312;2022-12-10T12:09:11;7.72;;;4.43;;
33840;SDS011;20142;28.494;-16.312;2022-12-10T12:14:43;6.47;;;4.90;;
33840;SDS011;20142;28.494;-16.312;2022-12-10T12:25:30;7.00;;;3.90;;
33840;SDS011;20142;28.494;-16.312;2022-12-10T12:30:41;5.25;;;3.88;;
33840;SDS011;20142;28.494;-16.312;2022-12-10T12:46:16;7.22;;;5.80;;
33840;SDS011;20142;28.494;-16.312;2022-12-10T12:51:29;6.05;;;5.43;;
33840;SDS011;20142;28.494;-16.312;2022-12-10T12:56:55;6.73;;;5.17;;
33840;SDS011;20142;28.494;-16.312;2022-12-10T13:02:22;5.22;;;4.70;;
33840;SDS011;20142;28.494;-16.312;2022-12-10T13:13:33;7.00;;;5.18;;
33840;SDS011;20142;28.494;-16.312;2022-12-10T13:18:39;6.03;;;3.92;;
33840;SDS011;20142;28.494;-16.312;2022-12-10T13:23:48;4.80;;;3.63;;
33840;SDS011;20142;28.494;-16.312;2022-12-10T13:28:55;4.28;;;3.80;;
33840;SDS011;20142;28.494;-16.312;2022-12-10T13:34:33;4.47;;;3.13;;
33840;SDS011;20142;28.494;-16.312;2022-12-10T13:45:00;3.53;;;2.83;;
33840;SDS011;20142;28.494;-16.312;2022-12-10T14:01:42;4.68;;;2.85;;
33840;SDS011;20142;28.494;-16.312;2022-12-10T14:07:13;7.72;;;3.25;;
33840;SDS011;20142;28.494;-16.312;2022-12-10T14:12:26;6.57;;;4.25;;
33840;SDS011;20142;28.494;-16.312;2022-12-10T14:17:37;6.63;;;5.32;;
33840;SDS011;20142;28.494;-16.312;2022-12-10T14:22:46;8.57;;;4.78;;
33840;SDS011;20142;28.494;-16.312;2022-12-10T14:28:18;7.18;;;4.80;;
33840;SDS011;20142;28.494;-16.312;2022-12-10T14:33:21;7.25;;;4.70;;
33840;SDS011;20142;28.494;-16.312;2022-12-10T14:38:31;6.63;;;5.05;;
33840;SDS011;20142;28.494;-16.312;2022-12-10T14:43:38;6.68;;;5.88;;
33840;SDS011;20142;28.494;-16.312;2022-12-10T14:48:42;9.98;;;6.35;;
33840;SDS011;20142;28.494;-16.312;2022-12-10T14:53:44;9.63;;;6.30;;
33840;SDS011;20142;28.494;-16.312;2022-12-10T14:59:01;7.47;;;6.60;;
33840;SDS011;20142;28.494;-16.312;2022-12-10T15:04:22;11.15;;;7.18;;
33840;SDS011;20142;28.494;-16.312;2022-12-10T15:09:25;11.95;;;8.80;;
33840;SDS011;20142;28.494;-16.312;2022-12-10T15:14:28;13.82;;;10.43;;
33840;SDS011;20142;28.494;-16.312;2022-12-10T15:19:31;16.25;;;11.02;;
33840;SDS011;20142;28.494;-16.312;2022-12-10T15:29:38;15.00;;;9.23;;
33840;SDS011;20142;28.494;-16.312;2022-12-10T15:34:41;12.90;;;10.27;;
33840;SDS011;20142;28.494;-16.312;2022-12-10T15:39:55;13.13;;;10.75;;
33840;SDS011;20142;28.494;-16.312;2022-12-10T15:45:00;14.38;;;10.70;;
33840;SDS011;20142;28.494;-16.312;2022-12-10T15:50:11;14.82;;;10.48;;
33840;SDS011;20142;28.494;-16.312;2022-12-10T15:55:13;12.85;;;10.25;;
33840;SDS011;20142;28.494;-16.312;2022-12-10T16:00:21;12.43;;;9.77;;
33840;SDS011;20142;28.494;-16.312;2022-12-10T16:05:31;8.48;;;6.85;;
33840;SDS011;20142;28.494;-16.312;2022-12-10T16:10:38;9.13;;;7.78;;
33840;SDS011;20142;28.494;-16.312;2022-12-10T16:15:43;12.68;;;9.32;;
33840;SDS011;20142;28.494;-16.312;2022-12-10T16:20:58;12.73;;;10.30;;
33840;SDS011;20142;28.494;-16.312;2022-12-10T16:25:59;14.48;;;10.55;;
33840;SDS011;20142;28.494;-16.312;2022-12-10T16:31:02;12.93;;;10.23;;
33840;SDS011;20142;28.494;-16.312;2022-12-10T16:36:03;17.13;;;11.05;;
33840;SDS011;20142;28.494;-16.312;2022-12-10T16:41:26;16.85;;;13.13;;
33840;SDS011;20142;28.494;-16.312;2022-12-10T16:46:29;16.73;;;13.68;;
33840;SDS011;20142;28.494;-16.312;2022-12-10T16:51:30;17.88;;;12.07;;
33840;SDS011;20142;28.494;-16.312;2022-12-10T16:56:33;13.25;;;11.13;;
33840;SDS011;20142;28.494;-16.312;2022-12-10T17:01:34;13.30;;;11.40;;
33840;SDS011;20142;28.494;-16.312;2022-12-10T17:06:36;11.77;;;8.65;;
33840;SDS011;20142;28.494;-16.312;2022-12-10T17:11:39;8.10;;;7.05;;
33840;SDS011;20142;28.494;-16.312;2022-12-10T17:16:45;5.80;;;5.30;;
33840;SDS011;20142;28.494;-16.312;2022-12-10T17:21:46;53.83;;;6.32;;
33840;SDS011;20142;28.494;-16.312;2022-12-10T17:26:48;184.57;;;11.80;;
33840;SDS011;20142;28.494;-16.312;2022-12-10T17:31:51;36.85;;;9.95;;
33840;SDS011;20142;28.494;-16.312;2022-12-10T17:36:53;122.47;;;12.35;;
33840;SDS011;20142;28.494;-16.312;2022-12-10T17:41:54;273.65;;;15.70;;
33840;SDS011;20142;28.494;-16.312;2022-12-10T17:46:57;570.53;;;21.35;;
33840;SDS011;20142;28.494;-16.312;2022-12-10T17:51:59;926.30;;;31.45;;
33840;SDS011;20142;28.494;-16.312;2022-12-10T17:57:01;1293.57;;;37.83;;
33840;SDS011;20142;28.494;-16.312;2022-12-10T18:02:03;968.00;;;30.55;;
33840;SDS011;20142;28.494;-16.312;2022-12-10T18:07:11;17.00;;;12.80;;
33840;SDS011;20142;28.494;-16.312;2022-12-10T18:12:15;21.33;;;14.05;;
33840;SDS011;20142;28.494;-16.312;2022-12-10T18:17:16;17.10;;;12.50;;
33840;SDS011;20142;28.494;-16.312;2022-12-10T18:22:18;79.70;;;16.67;;
33840;SDS011;20142;28.494;-16.312;2022-12-10T18:27:20;18.95;;;14.68;;
33840;SDS011;20142;28.494;-16.312;2022-12-10T18:32:22;19.42;;;15.23;;
33840;SDS011;20142;28.494;-16.312;2022-12-10T18:37:24;20.67;;;17.25;;
33840;SDS011;20142;28.494;-16.312;2022-12-10T18:42:26;16.40;;;13.88;;
33840;SDS011;20142;28.494;-16.312;2022-12-10T18:47:27;15.30;;;13.73;;
33840;SDS011;20142;28.494;-16.312;2022-12-10T18:52:29;15.00;;;13.13;;
33840;SDS011;20142;28.494;-16.312;2022-12-10T18:57:31;14.18;;;11.95;;
33840;SDS011;20142;28.494;-16.312;2022-12-10T19:02:32;12.10;;;10.63;;
33840;SDS011;20142;28.494;-16.312;2022-12-10T19:07:34;15.68;;;13.25;;
33840;SDS011;20142;28.494;-16.312;2022-12-10T19:12:36;13.70;;;12.15;;
33840;SDS011;20142;28.494;-16.312;2022-12-10T19:17:38;17.27;;;15.15;;
33840;SDS011;20142;28.494;-16.312;2022-12-10T19:22:41;21.60;;;16.25;;
33840;SDS011;20142;28.494;-16.312;2022-12-10T19:27:43;16.40;;;13.50;;
33840;SDS011;20142;28.494;-16.312;2022-12-10T19:32:45;16.88;;;13.52;;
33840;SDS011;20142;28.494;-16.312;2022-12-10T19:37:47;14.00;;;12.48;;
33840;SDS011;20142;28.494;-16.312;2022-12-10T19:42:50;21.92;;;13.82;;
33840;SDS011;20142;28.494;-16.312;2022-12-10T19:47:52;23.20;;;16.63;;
33840;SDS011;20142;28.494;-16.312;2022-12-10T19:52:56;16.98;;;13.85;;
33840;SDS011;20142;28.494;-16.312;2022-12-10T19:58:01;18.73;;;15.05;;
33840;SDS011;20142;28.494;-16.312;2022-12-10T20:03:03;21.55;;;16.85;;
33840;SDS011;20142;28.494;-16.312;2022-12-10T20:08:05;26.00;;;18.85;;
33840;SDS011;20142;28.494;-16.312;2022-12-10T20:13:06;26.17;;;17.13;;
33840;SDS011;20142;28.494;-16.312;2022-12-10T20:18:08;16.15;;;12.73;;
33840;SDS011;20142;28.494;-16.312;2022-12-10T20:23:10;14.00;;;11.48;;
33840;SDS011;20142;28.494;-16.312;2022-12-10T20:28:12;16.65;;;12.85;;
33840;SDS011;20142;28.494;-16.312;2022-12-10T20:33:15;26.63;;;16.33;;
33840;SDS011;20142;28.494;-16.312;2022-12-10T20:38:17;20.52;;;15.02;;
33840;SDS011;20142;28.494;-16.312;2022-12-10T20:43:18;20.02;;;14.73;;
33840;SDS011;20142;28.494;-16.312;2022-12-10T20:48:20;18.92;;;15.23;;
33840;SDS011;20142;28.494;-16.312;2022-12-10T20:53:22;19.73;;;14.18;;
33840;SDS011;20142;28.494;-16.312;2022-12-10T20:58:23;17.70;;;12.32;;
33840;SDS011;20142;28.494;-16.312;2022-12-10T21:03:25;18.88;;;13.13;;
33840;SDS011;20142;28.494;-16.312;2022-12-10T21:08:27;154.55;;;16.65;;
33840;SDS011;20142;28.494;-16.312;2022-12-10T21:13:28;286.52;;;13.27;;
33840;SDS011;20142;28.494;-16.312;2022-12-10T21:18:30;345.40;;;11.90;;
33840;SDS011;20142;28.494;-16.312;2022-12-10T21:23:32;51.60;;;8.95;;
33840;SDS011;20142;28.494;-16.312;2022-12-10T21:28:34;119.85;;;11.38;;
33840;SDS011;20142;28.494;-16.312;2022-12-10T21:33:36;11.48;;;7.60;;
33840;SDS011;20142;28.494;-16.312;2022-12-10T21:38:38;10.57;;;6.90;;
33840;SDS011;20142;28.494;-16.312;2022-12-10T21:43:40;8.80;;;6.70;;
33840;SDS011;20142;28.494;-16.312;2022-12-10T21:48:42;9.63;;;7.75;;
33840;SDS011;20142;28.494;-16.312;2022-12-10T21:53:43;12.95;;;8.85;;
33840;SDS011;20142;28.494;-16.312;2022-12-10T21:58:45;11.15;;;8.70;;
33840;SDS011;20142;28.494;-16.312;2022-12-10T22:03:47;14.32;;;9.30;;
33840;SDS011;20142;28.494;-16.312;2022-12-10T22:08:49;16.30;;;9.02;;
33840;SDS011;20142;28.494;-16.312;2022-12-10T22:13:52;9.07;;;7.75;;
33840;SDS011;20142;28.494;-16.312;2022-12-10T22:18:54;275.00;;;12.43;;
33840;SDS011;20142;28.494;-16.312;2022-12-10T22:23:56;64.13;;;9.77;;
33840;SDS011;20142;28.494;-16.312;2022-12-10T22:28:58;13.25;;;10.07;;
33840;SDS011;20142;28.494;-16.312;2022-12-10T22:33:59;38.28;;;10.60;;
33840;SDS011;20142;28.494;-16.312;2022-12-10T22:39:01;207.80;;;13.07;;
33840;SDS011;20142;28.494;-16.312;2022-12-10T22:44:03;103.50;;;10.85;;
33840;SDS011;20142;28.494;-16.312;2022-12-10T22:49:05;186.15;;;11.52;;
33840;SDS011;20142;28.494;-16.312;2022-12-10T22:54:06;116.88;;;13.73;;
33840;SDS011;20142;28.494;-16.312;2022-12-10T22:59:08;18.88;;;6.85;;
33840;SDS011;20142;28.494;-16.312;2022-12-10T23:04:11;9.73;;;7.15;;
33840;SDS011;20142;28.494;-16.312;2022-12-10T23:09:13;10.73;;;6.95;;
33840;SDS011;20142;28.494;-16.312;2022-12-10T23:14:15;10.07;;;7.25;;
33840;SDS011;20142;28.494;-16.312;2022-12-10T23:19:16;11.38;;;6.90;;
33840;SDS011;20142;28.494;-16.312;2022-12-10T23:24:18;12.13;;;7.45;;
33840;SDS011;20142;28.494;-16.312;2022-12-10T23:29:21;11.70;;;8.10;;
33840;SDS011;20142;28.494;-16.312;2022-12-10T23:34:22;8.77;;;7.53;;
33840;SDS011;20142;28.494;-16.312;2022-12-10T23:39:24;9.80;;;6.80;;
33840;SDS011;20142;28.494;-16.312;2022-12-10T23:44:26;13.55;;;7.38;;
33840;SDS011;20142;28.494;-16.312;2022-12-10T23:49:28;17.90;;;8.02;;
33840;SDS011;20142;28.494;-16.312;2022-12-10T23:54:29;16.48;;;8.23;;
33840;SDS011;20142;28.494;-16.312;2022-12-10T23:59:33;10.50;;;8.88;;
